Time;durP1;ratioP1;P1;durP2;ratioP2;P2;SDS_P1;SDS_P2;PMS_P1;PMS_P2;Temp;Humidity;BMP_temperature;BMP_pressure;BME280_temperature;BME280_humidity;BME280_pressure;Samples;Min_cycle;Max_cycle;Signal;HPM_P1;HPM_P2
2021/11/26 00:02:23;;;;;;;59.73;22.50;;;3.90;99.90;;;;;;5035036;28;20257;-62
2021/11/26 00:04:51;;;;;;;60.23;23.97;;;3.90;99.90;;;;;;5034370;28;20698;-62
2021/11/26 00:07:18;;;;;;;60.57;23.93;;;3.80;99.90;;;;;;5034747;28;20653;-62
2021/11/26 00:09:45;;;;;;;64.73;24.50;;;3.80;99.90;;;;;;5034672;28;20207;-61
2021/11/26 00:12:12;;;;;;;65.60;24.97;;;3.80;99.90;;;;;;5034885;28;20264;-62
2021/11/26 00:14:46;;;;;;;61.83;25.30;;;3.80;99.90;;;;;;5034291;28;20230;-61
2021/11/26 00:17:18;;;;;;;64.73;24.90;;;3.80;99.90;;;;;;5034503;28;20230;-62
2021/11/26 00:19:44;;;;;;;86.43;28.13;;;3.80;99.90;;;;;;5034604;28;20210;-62
2021/11/26 00:22:11;;;;;;;72.43;27.43;;;3.80;99.90;;;;;;5034365;28;20214;-62
2021/11/26 00:24:38;;;;;;;67.33;25.97;;;3.80;99.90;;;;;;5033834;28;20496;-62
2021/11/26 00:27:05;;;;;;;77.40;28.60;;;3.80;99.90;;;;;;5034636;28;20441;-62
2021/11/26 00:29:32;;;;;;;74.37;28.50;;;3.80;99.90;;;;;;5034102;28;20260;-62
2021/11/26 00:31:59;;;;;;;75.37;27.97;;;3.80;99.90;;;;;;5034320;28;20452;-62
2021/11/26 00:34:26;;;;;;;64.37;24.83;;;3.80;99.90;;;;;;5033832;28;20233;-62
2021/11/26 00:36:53;;;;;;;67.90;27.33;;;3.70;99.90;;;;;;5033762;28;20202;-62
2021/11/26 00:39:20;;;;;;;78.03;29.13;;;3.80;99.90;;;;;;5034078;28;20296;-62
2021/11/26 00:41:47;;;;;;;71.23;28.30;;;3.80;99.90;;;;;;5034189;28;20616;-62
2021/11/26 00:44:14;;;;;;;75.60;28.77;;;3.70;99.90;;;;;;5034316;28;20477;-60
2021/11/26 00:46:40;;;;;;;73.47;26.83;;;3.70;99.90;;;;;;5033701;28;20653;-61
2021/11/26 00:49:07;;;;;;;76.20;28.07;;;3.70;99.90;;;;;;5034061;28;20257;-62
2021/11/26 00:51:35;;;;;;;86.13;28.40;;;3.70;99.90;;;;;;5033756;28;20518;-62
2021/11/26 00:54:02;;;;;;;77.07;27.17;;;3.70;99.90;;;;;;5034027;28;20522;-61
2021/11/26 00:56:28;;;;;;;69.67;25.93;;;3.70;99.90;;;;;;5033661;28;20360;-62
2021/11/26 00:58:55;;;;;;;65.77;25.87;;;3.70;99.90;;;;;;5033751;28;20207;-62
2021/11/26 01:01:22;;;;;;;78.67;26.30;;;3.70;99.90;;;;;;5033804;28;20587;-62
2021/11/26 01:03:49;;;;;;;69.47;26.40;;;3.80;99.90;;;;;;5033690;28;20206;-62
2021/11/26 01:06:15;;;;;;;71.20;25.17;;;3.70;99.90;;;;;;5033140;28;20469;-61
2021/11/26 01:08:43;;;;;;;72.67;25.53;;;3.70;99.90;;;;;;5033599;28;20214;-62
2021/11/26 01:11:10;;;;;;;73.70;26.47;;;3.70;99.90;;;;;;5033570;28;20202;-61
2021/11/26 01:13:37;;;;;;;71.60;25.57;;;3.80;99.90;;;;;;5033553;28;20210;-62
2021/11/26 01:16:04;;;;;;;69.60;24.20;;;3.70;99.90;;;;;;5032848;28;20228;-62
2021/11/26 01:18:31;;;;;;;68.03;26.97;;;3.70;99.90;;;;;;5033473;28;20260;-62
2021/11/26 01:20:58;;;;;;;71.73;27.30;;;3.70;99.90;;;;;;5033407;28;20457;-62
2021/11/26 01:23:25;;;;;;;63.47;23.57;;;3.70;99.90;;;;;;5032966;28;20575;-62
2021/11/26 01:25:53;;;;;;;72.63;24.87;;;3.60;99.90;;;;;;5032858;28;20234;-62
2021/11/26 01:28:20;;;;;;;81.20;26.97;;;3.50;99.90;;;;;;5033255;28;20449;-62
2021/11/26 01:30:47;;;;;;;74.70;25.57;;;3.50;99.90;;;;;;5033252;28;20225;-61
2021/11/26 01:33:16;;;;;;;77.23;26.33;;;3.50;99.90;;;;;;5033339;28;20682;-62
2021/11/26 01:35:43;;;;;;;74.10;26.47;;;3.40;99.90;;;;;;5032923;28;20511;-62
2021/11/26 01:38:11;;;;;;;66.30;24.90;;;3.40;99.90;;;;;;5032998;28;20210;-62
2021/11/26 01:40:40;;;;;;;71.17;25.27;;;3.50;99.90;;;;;;5033127;28;20690;-61
2021/11/26 01:43:10;;;;;;;67.63;23.27;;;3.50;99.90;;;;;;5032894;28;20453;-62
2021/11/26 01:45:42;;;;;;;62.40;22.23;;;3.50;99.90;;;;;;5032455;28;20866;-62
2021/11/26 01:48:08;;;;;;;61.00;20.57;;;3.50;99.90;;;;;;5033091;28;20507;-62
2021/11/26 01:50:35;;;;;;;64.93;22.80;;;3.50;99.90;;;;;;5032917;28;20457;-62
2021/11/26 01:53:02;;;;;;;66.00;21.30;;;3.50;99.90;;;;;;5032823;28;20462;-61
2021/11/26 01:55:28;;;;;;;60.40;22.20;;;3.40;99.90;;;;;;5032351;28;20273;-62
2021/11/26 01:57:55;;;;;;;70.47;22.50;;;3.50;1.00;;;;;;5032748;28;20456;-60
2021/11/26 02:00:27;;;;;;;72.23;23.73;;;3.50;1.00;;;;;;5032433;28;20218;-62
2021/11/26 02:02:54;;;;;;;54.50;20.53;;;3.50;1.00;;;;;;5032832;28;20215;-62
2021/11/26 02:05:20;;;;;;;56.23;21.97;;;3.50;1.00;;;;;;5032088;28;20899;-62
2021/11/26 02:07:47;;;;;;;60.50;22.07;;;3.50;1.00;;;;;;5032454;28;20211;-61
2021/11/26 02:10:14;;;;;;;58.00;21.20;;;3.60;1.00;;;;;;5032607;28;20449;-62
2021/11/26 02:12:41;;;;;;;60.07;21.47;;;3.60;1.00;;;;;;5032276;28;20214;-62
2021/11/26 02:15:09;;;;;;;62.83;21.83;;;3.70;1.00;;;;;;5032185;28;20218;-62
2021/11/26 02:17:36;;;;;;;55.97;20.33;;;3.70;1.00;;;;;;5032147;28;20217;-62
2021/11/26 02:20:15;;;;;;;56.50;20.67;;;3.70;1.00;;;;;;5032420;28;20238;-61
2021/11/26 02:22:41;;;;;;;57.67;21.00;;;3.70;1.00;;;;;;5032400;28;20214;-62
2021/11/26 02:25:09;;;;;;;60.30;21.00;;;3.70;1.00;;;;;;5031698;28;20226;-62
2021/11/26 02:27:36;;;;;;;58.90;21.67;;;3.70;1.00;;;;;;5032364;28;20235;-62
2021/11/26 02:30:12;;;;;;;56.53;21.90;;;3.70;1.00;;;;;;5032430;28;20210;-62
2021/11/26 02:32:39;;;;;;;63.73;21.93;;;3.70;1.00;;;;;;5032265;28;20573;-62
2021/11/26 02:35:09;;;;;;;69.13;22.03;;;3.70;1.00;;;;;;5030646;28;20622;-61
2021/11/26 02:37:36;;;;;;;56.20;21.27;;;3.80;1.00;;;;;;5031775;28;20221;-62
2021/11/26 02:40:03;;;;;;;63.30;21.93;;;3.70;1.00;;;;;;5031850;28;20257;-62
2021/11/26 02:42:30;;;;;;;70.57;24.43;;;3.80;1.00;;;;;;5032105;28;20214;-62
2021/11/26 02:44:56;;;;;;;63.00;22.63;;;3.80;1.00;;;;;;5031538;28;20226;-59
2021/11/26 02:47:23;;;;;;;74.53;22.80;;;3.80;1.00;;;;;;5031953;28;20631;-62
2021/11/26 02:49:50;;;;;;;70.13;23.27;;;3.90;1.00;;;;;;5032064;28;20619;-62
2021/11/26 02:52:18;;;;;;;59.33;22.80;;;3.90;1.00;;;;;;5031834;28;20217;-62
2021/11/26 02:54:44;;;;;;;68.03;24.83;;;3.90;1.00;;;;;;5031470;28;20257;-62
2021/11/26 02:57:11;;;;;;;72.00;25.60;;;3.90;1.00;;;;;;5031838;28;20667;-62
2021/11/26 02:59:38;;;;;;;71.03;23.83;;;4.00;1.00;;;;;;5031799;28;20667;-62
2021/11/26 03:02:05;;;;;;;65.30;24.30;;;4.00;1.00;;;;;;5031686;28;20462;-62
2021/11/26 03:04:31;;;;;;;68.03;25.90;;;4.00;1.00;;;;;;5031483;28;20207;-62
2021/11/26 03:07:02;;;;;;;63.83;24.63;;;4.00;1.00;;;;;;5031590;28;20209;-62
2021/11/26 03:09:30;;;;;;;72.30;26.17;;;4.00;99.90;;;;;;5031849;28;20203;-61
2021/11/26 03:11:57;;;;;;;71.73;27.43;;;3.90;99.90;;;;;;5032150;28;20272;-61
2021/11/26 03:14:24;;;;;;;76.07;25.87;;;3.90;99.90;;;;;;5031915;28;20202;-62
2021/11/26 03:16:51;;;;;;;70.40;24.80;;;3.90;99.90;;;;;;5031472;28;20457;-62
2021/11/26 03:19:19;;;;;;;68.50;26.07;;;3.90;99.90;;;;;;5031851;28;20681;-61
2021/11/26 03:21:45;;;;;;;69.60;25.90;;;3.90;99.90;;;;;;5031925;28;20268;-61
2021/11/26 03:24:12;;;;;;;60.60;25.00;;;4.00;99.90;;;;;;5032061;28;20632;-62
2021/11/26 03:26:40;;;;;;;70.40;25.17;;;3.90;99.90;;;;;;5031313;28;20644;-62
2021/11/26 03:29:07;;;;;;;67.63;25.63;;;4.00;99.90;;;;;;5031675;28;20215;-62
2021/11/26 03:31:34;;;;;;;67.43;26.37;;;3.90;99.90;;;;;;5031410;28;20263;-62
2021/11/26 03:34:00;;;;;;;67.27;25.67;;;4.00;99.90;;;;;;5031538;28;20238;-62
2021/11/26 03:36:27;;;;;;;65.33;25.80;;;3.90;99.90;;;;;;5031196;28;20278;-62
2021/11/26 03:38:54;;;;;;;72.30;27.80;;;3.90;99.90;;;;;;5031571;28;20202;-62
2021/11/26 03:41:21;;;;;;;70.33;26.70;;;4.00;99.90;;;;;;5031423;28;20749;-62
2021/11/26 03:43:49;;;;;;;67.73;28.27;;;3.90;99.90;;;;;;5031614;28;20207;-62
2021/11/26 03:46:16;;;;;;;63.60;26.60;;;3.90;99.90;;;;;;5032365;28;20684;-62
2021/11/26 03:48:44;;;;;;;57.47;25.43;;;4.00;99.90;;;;;;5034997;28;20206;-62
2021/11/26 03:51:11;;;;;;;65.97;26.50;;;3.90;99.90;;;;;;5036474;28;20241;-62
2021/11/26 03:53:37;;;;;;;59.87;24.70;;;3.90;99.90;;;;;;5034871;28;20252;-62
2021/11/26 03:56:05;;;;;;;70.07;26.90;;;4.00;99.90;;;;;;5034663;28;20233;-62
2021/11/26 03:58:32;;;;;;;64.23;25.40;;;4.00;99.90;;;;;;5034940;28;20202;-62
2021/11/26 04:01:00;;;;;;;57.97;25.70;;;3.90;99.90;;;;;;5034653;28;20677;-62
2021/11/26 04:03:28;;;;;;;52.60;24.10;;;4.00;99.90;;;;;;5035045;28;20212;-62
2021/11/26 04:05:54;;;;;;;56.17;24.37;;;4.00;99.90;;;;;;5034428;28;20599;-62
2021/11/26 04:08:21;;;;;;;55.53;24.67;;;4.00;99.90;;;;;;5034732;28;20691;-62
2021/11/26 04:10:48;;;;;;;54.93;24.90;;;4.00;99.90;;;;;;5034655;28;20675;-62
2021/11/26 04:13:17;;;;;;;57.63;24.77;;;4.10;99.90;;;;;;5034951;28;20277;-62
2021/11/26 04:15:44;;;;;;;55.47;24.63;;;4.20;99.90;;;;;;5034113;28;20228;-62
2021/11/26 04:18:12;;;;;;;55.80;26.10;;;4.20;99.90;;;;;;5034422;28;20220;-62
2021/11/26 04:20:42;;;;;;;55.60;24.23;;;4.20;99.90;;;;;;5034763;28;20608;-61
2021/11/26 04:23:09;;;;;;;53.70;24.83;;;4.20;99.90;;;;;;5034568;28;20222;-61
2021/11/26 04:25:37;;;;;;;54.23;25.63;;;4.10;99.90;;;;;;5033988;28;20696;-62
2021/11/26 04:28:04;;;;;;;50.37;25.07;;;4.20;99.90;;;;;;5034336;28;20589;-62
2021/11/26 04:30:31;;;;;;;59.33;27.33;;;4.20;99.90;;;;;;5034472;28;20218;-62
2021/11/26 04:32:58;;;;;;;53.47;27.00;;;4.20;99.90;;;;;;5034323;28;20214;-61
2021/11/26 04:35:27;;;;;;;54.33;27.60;;;4.10;99.90;;;;;;5033829;28;20261;-61
2021/11/26 04:37:53;;;;;;;59.73;28.30;;;4.10;99.90;;;;;;5034309;28;20207;-62
2021/11/26 04:40:20;;;;;;;53.53;27.03;;;4.10;99.90;;;;;;5034241;28;20212;-61
2021/11/26 04:42:47;;;;;;;56.87;28.57;;;4.00;99.90;;;;;;5034098;28;20262;-61
2021/11/26 04:45:16;;;;;;;56.17;29.23;;;4.10;99.90;;;;;;5033672;28;20232;-60
2021/11/26 04:47:43;;;;;;;57.67;28.73;;;4.10;99.90;;;;;;5034171;28;20610;-61
2021/11/26 04:50:11;;;;;;;62.77;28.90;;;4.10;99.90;;;;;;5034376;28;20202;-61
2021/11/26 04:52:39;;;;;;;63.83;29.93;;;4.00;99.90;;;;;;5033911;28;20211;-60
2021/11/26 04:55:08;;;;;;;56.93;28.83;;;4.00;99.90;;;;;;5033383;28;20234;-60
2021/11/26 04:57:34;;;;;;;66.80;29.47;;;4.00;99.90;;;;;;5033176;28;20211;-61
2021/11/26 05:00:01;;;;;;;62.60;29.40;;;3.90;99.90;;;;;;5033967;28;20211;-62
2021/11/26 05:02:28;;;;;;;55.63;28.30;;;3.90;99.90;;;;;;5033666;28;20213;-62
2021/11/26 05:04:55;;;;;;;57.10;29.43;;;4.00;99.90;;;;;;5033441;28;20288;-61
2021/11/26 05:07:23;;;;;;;56.73;29.00;;;3.90;99.90;;;;;;5033566;28;20230;-62
2021/11/26 05:09:52;;;;;;;56.17;29.50;;;3.90;99.90;;;;;;5033430;28;20203;-62
2021/11/26 05:12:19;;;;;;;53.33;28.40;;;3.80;99.90;;;;;;5033879;28;20206;-61
2021/11/26 05:14:46;;;;;;;56.63;29.00;;;3.80;99.90;;;;;;5032911;28;20225;-62
2021/11/26 05:17:12;;;;;;;53.87;29.23;;;3.80;99.90;;;;;;5030531;28;20218;-62
2021/11/26 05:19:39;;;;;;;56.13;29.17;;;3.80;99.90;;;;;;5033352;28;20376;-62
2021/11/26 05:22:06;;;;;;;54.13;29.80;;;3.70;1.00;;;;;;5033470;28;20215;-63
2021/11/26 05:24:32;;;;;;;49.73;26.97;;;3.70;1.00;;;;;;5032926;28;20456;-62
2021/11/26 05:27:00;;;;;;;55.70;28.17;;;3.70;1.00;;;;;;5029970;28;20494;-62
2021/11/26 05:29:27;;;;;;;54.40;28.10;;;3.70;1.00;;;;;;5031234;28;20719;-62
2021/11/26 05:31:54;;;;;;;51.07;26.23;;;3.70;1.00;;;;;;5032783;28;20203;-60
2021/11/26 05:34:20;;;;;;;55.10;27.73;;;3.80;1.00;;;;;;5032890;28;20453;-60
2021/11/26 05:36:47;;;;;;;46.03;26.17;;;3.80;1.00;;;;;;5032454;28;20210;-61
2021/11/26 05:39:14;;;;;;;41.90;26.00;;;3.80;1.00;;;;;;5032902;28;20212;-61
2021/11/26 05:41:40;;;;;;;50.77;25.77;;;3.90;1.00;;;;;;5033102;28;20206;-62
2021/11/26 05:44:08;;;;;;;42.10;23.53;;;3.90;1.00;;;;;;5032910;28;20229;-63
2021/11/26 05:46:35;;;;;;;46.30;24.60;;;3.90;1.00;;;;;;5037187;28;20239;-62
2021/11/26 05:49:02;;;;;;;42.03;22.97;;;3.90;1.00;;;;;;5032647;28;20218;-62
2021/11/26 05:51:28;;;;;;;41.13;22.40;;;3.80;1.00;;;;;;5032591;28;20449;-62
2021/11/26 05:53:55;;;;;;;44.07;22.40;;;3.90;1.00;;;;;;5032462;28;20445;-62
2021/11/26 05:56:22;;;;;;;42.20;21.23;;;3.90;1.00;;;;;;5032520;28;20227;-62
2021/11/26 05:58:49;;;;;;;35.37;18.47;;;3.80;1.00;;;;;;5032383;28;20265;-62
2021/11/26 06:01:17;;;;;;;42.17;21.77;;;3.90;1.00;;;;;;5032460;28;20257;-65
2021/11/26 06:03:43;;;;;;;48.67;22.23;;;3.80;1.00;;;;;;5032555;28;20206;-62
2021/11/26 06:06:10;;;;;;;42.57;21.27;;;3.70;1.00;;;;;;5031629;28;20222;-62
2021/11/26 06:08:37;;;;;;;37.23;21.03;;;3.80;1.00;;;;;;5032463;28;20210;-62
2021/11/26 06:11:04;;;;;;;38.60;21.53;;;3.90;1.00;;;;;;5032411;28;20206;-62
2021/11/26 06:13:30;;;;;;;37.70;20.60;;;3.90;1.00;;;;;;5032591;28;20264;-62
2021/11/26 06:15:57;;;;;;;40.07;21.07;;;3.80;1.00;;;;;;5031804;28;20222;-63
2021/11/26 06:18:25;;;;;;;33.97;19.43;;;3.80;1.00;;;;;;5031889;28;20260;-63
2021/11/26 06:20:51;;;;;;;38.13;20.07;;;3.80;1.00;;;;;;5032041;28;20671;-63
2021/11/26 06:23:18;;;;;;;39.37;20.87;;;3.80;1.00;;;;;;5032212;28;20237;-63
2021/11/26 06:25:45;;;;;;;36.27;20.10;;;3.90;1.00;;;;;;5031695;28;20480;-62
2021/11/26 06:28:11;;;;;;;32.43;18.40;;;3.80;1.00;;;;;;5031675;28;20615;-63
2021/11/26 06:30:38;;;;;;;32.77;18.30;;;3.80;1.00;;;;;;5030312;28;20214;-65
2021/11/26 06:33:05;;;;;;;33.37;16.60;;;3.80;1.00;;;;;;5041660;28;20205;-62
2021/11/26 06:35:33;;;;;;;27.63;15.60;;;3.70;1.00;;;;;;5051312;28;20234;-62
2021/11/26 06:38:00;;;;;;;28.57;14.97;;;3.70;1.00;;;;;;5051719;28;20275;-63
2021/11/26 06:40:27;;;;;;;21.77;13.70;;;3.80;1.00;;;;;;5051421;28;20678;-64
2021/11/26 06:42:54;;;;;;;24.83;14.07;;;3.80;1.00;;;;;;5051247;28;20692;-63
2021/11/26 06:45:21;;;;;;;23.23;13.23;;;3.80;1.00;;;;;;5050947;28;20796;-63
2021/11/26 06:47:48;;;;;;;24.43;13.07;;;3.80;1.00;;;;;;5051107;28;20230;-63
2021/11/26 06:50:16;;;;;;;22.33;13.20;;;3.80;1.00;;;;;;5051611;28;20228;-66
2021/11/26 06:52:44;;;;;;;22.33;13.07;;;3.80;1.00;;;;;;5040343;28;20206;-63
2021/11/26 06:55:12;;;;;;;23.00;12.77;;;3.70;99.90;;;;;;5030950;28;20651;-65
2021/11/26 06:57:40;;;;;;;22.30;12.13;;;3.70;99.90;;;;;;5031498;28;20694;-62
2021/11/26 07:00:10;;;;;;;23.23;12.23;;;3.70;99.90;;;;;;5031237;28;20673;-63
2021/11/26 07:02:37;;;;;;;22.03;12.47;;;3.70;99.90;;;;;;5031512;28;20207;-61
2021/11/26 07:05:05;;;;;;;23.90;13.60;;;3.70;1.00;;;;;;5031037;28;20798;-62
2021/11/26 07:07:32;;;;;;;22.70;13.00;;;3.70;1.00;;;;;;5031404;28;20226;-63
2021/11/26 07:10:00;;;;;;;22.40;13.03;;;3.70;1.00;;;;;;5031047;28;20211;-61
2021/11/26 07:12:26;;;;;;;24.57;14.70;;;3.70;1.00;;;;;;5030887;28;20214;-62
2021/11/26 07:14:53;;;;;;;24.33;13.77;;;3.60;1.00;;;;;;5030779;28;20297;-63
2021/11/26 07:17:20;;;;;;;26.53;13.97;;;3.70;1.00;;;;;;5031058;28;21036;-64
2021/11/26 07:19:49;;;;;;;23.60;13.67;;;3.70;1.00;;;;;;5031259;28;20675;-62
2021/11/26 07:22:17;;;;;;;22.80;14.13;;;3.70;1.00;;;;;;5034389;28;20222;-62
2021/11/26 07:24:43;;;;;;;29.83;15.23;;;3.70;1.00;;;;;;5034632;28;20235;-61
2021/11/26 07:27:11;;;;;;;29.43;14.37;;;3.80;1.00;;;;;;5034876;28;20230;-59
2021/11/26 07:29:38;;;;;;;30.67;14.97;;;3.80;1.00;;;;;;5034992;28;20207;-63
2021/11/26 07:32:06;;;;;;;26.00;13.87;;;3.80;1.00;;;;;;5034698;28;20603;-63
2021/11/26 07:34:33;;;;;;;26.83;15.03;;;3.80;1.00;;;;;;5034762;28;20207;-62
2021/11/26 07:37:00;;;;;;;25.47;14.07;;;3.80;1.00;;;;;;5034660;28;20499;-62
2021/11/26 07:39:32;;;;;;;26.90;14.30;;;3.90;1.00;;;;;;5034792;28;20207;-60
2021/11/26 07:42:00;;;;;;;28.57;15.23;;;3.90;1.00;;;;;;5034407;28;20207;-62
2021/11/26 07:44:27;;;;;;;27.10;14.93;;;3.90;1.00;;;;;;5035091;28;20208;-60
2021/11/26 07:46:54;;;;;;;25.90;13.83;;;3.80;1.00;;;;;;5034348;28;20237;-63
2021/11/26 07:49:24;;;;;;;30.63;16.20;;;3.80;1.00;;;;;;5035011;28;20207;-65
2021/11/26 07:51:50;;;;;;;24.27;14.20;;;3.90;1.00;;;;;;5034214;28;20839;-65
2021/11/26 07:54:17;;;;;;;25.97;13.90;;;3.90;1.00;;;;;;5034721;28;20202;-64
2021/11/26 07:56:44;;;;;;;26.07;13.20;;;4.10;1.00;;;;;;5034249;28;20918;-65
2021/11/26 07:59:10;;;;;;;27.03;13.53;;;4.00;1.00;;;;;;5033386;28;20633;-65
2021/11/26 08:01:38;;;;;;;25.03;14.03;;;4.00;1.00;;;;;;5034652;28;20245;-60
2021/11/26 08:04:05;;;;;;;25.87;13.90;;;3.90;1.00;;;;;;5034351;28;20219;-60
2021/11/26 08:06:32;;;;;;;24.33;13.30;;;3.80;1.00;;;;;;5033838;28;20242;-60
2021/11/26 08:08:58;;;;;;;27.77;14.33;;;3.80;1.00;;;;;;5034308;28;20210;-61
2021/11/26 08:11:25;;;;;;;24.13;13.33;;;3.80;1.00;;;;;;5034119;28;20234;-60
2021/11/26 08:13:52;;;;;;;26.80;13.40;;;3.80;1.00;;;;;;5034245;28;20208;-62
2021/11/26 08:16:18;;;;;;;25.37;13.90;;;3.80;1.00;;;;;;5033919;28;20230;-63
2021/11/26 08:18:46;;;;;;;25.60;12.70;;;3.80;1.00;;;;;;5034364;28;20213;-62
2021/11/26 08:21:13;;;;;;;27.13;13.80;;;3.80;1.00;;;;;;5033941;28;20254;-62
2021/11/26 08:23:40;;;;;;;26.13;14.60;;;3.80;1.00;;;;;;5033833;28;20215;-62
2021/11/26 08:26:07;;;;;;;31.10;15.40;;;3.80;1.00;;;;;;5033962;28;20285;-61
2021/11/26 08:28:33;;;;;;;27.27;14.73;;;3.90;1.00;;;;;;5033937;28;20230;-62
2021/11/26 08:31:00;;;;;;;29.53;14.43;;;3.80;1.00;;;;;;5034004;28;20216;-62
2021/11/26 08:33:27;;;;;;;28.30;14.20;;;3.90;1.00;;;;;;5032260;28;20207;-63
2021/11/26 08:35:55;;;;;;;27.50;14.73;;;3.90;1.00;;;;;;5033602;28;20223;-61
2021/11/26 08:38:23;;;;;;;27.83;14.33;;;3.90;1.00;;;;;;5037911;28;20210;-65
2021/11/26 08:40:50;;;;;;;30.87;16.07;;;3.80;1.00;;;;;;5053498;28;20674;-65
2021/11/26 08:43:17;;;;;;;31.27;15.27;;;3.90;1.00;;;;;;5053370;28;20209;-63
2021/11/26 08:45:44;;;;;;;32.80;16.37;;;3.90;1.00;;;;;;5053234;28;20226;-61
2021/11/26 08:48:12;;;;;;;29.07;15.00;;;4.00;1.00;;;;;;5053414;28;20233;-62
2021/11/26 08:50:40;;;;;;;33.43;15.87;;;4.10;1.00;;;;;;5053117;28;20305;-62
2021/11/26 08:53:09;;;;;;;29.77;15.00;;;4.00;1.00;;;;;;5053161;28;20273;-61
2021/11/26 08:55:38;;;;;;;32.33;15.33;;;4.00;1.00;;;;;;5053181;28;20235;-63
2021/11/26 08:58:04;;;;;;;30.97;15.83;;;4.00;1.00;;;;;;5053244;28;20835;-60
2021/11/26 09:00:34;;;;;;;26.17;12.67;;;4.00;99.90;;;;;;5053358;28;20218;-61
2021/11/26 09:03:02;;;;;;;36.80;16.43;;;4.00;99.90;;;;;;5052775;28;20202;-60
2021/11/26 09:05:29;;;;;;;34.63;16.70;;;4.00;99.90;;;;;;5053110;28;20235;-61
2021/11/26 09:08:00;;;;;;;34.70;15.90;;;4.10;99.90;;;;;;5053157;28;20233;-61
2021/11/26 09:10:29;;;;;;;30.47;16.57;;;4.00;99.90;;;;;;5053188;28;20265;-60
2021/11/26 09:12:55;;;;;;;33.30;15.40;;;4.10;99.90;;;;;;5052816;28;20206;-61
2021/11/26 09:15:22;;;;;;;32.53;15.73;;;4.10;99.90;;;;;;5052513;28;20265;-62
2021/11/26 09:17:49;;;;;;;32.70;15.50;;;4.20;99.90;;;;;;5052878;28;20636;-65
2021/11/26 09:20:18;;;;;;;27.27;14.27;;;4.10;99.90;;;;;;5053205;28;20217;-61
2021/11/26 09:22:44;;;;;;;28.50;13.87;;;4.10;99.90;;;;;;5053021;28;20208;-61
2021/11/26 09:25:12;;;;;;;34.97;14.53;;;4.20;99.90;;;;;;5052981;28;20595;-61
2021/11/26 09:27:41;;;;;;;35.23;14.67;;;4.10;99.90;;;;;;5052969;28;20246;-58
2021/11/26 09:30:10;;;;;;;33.63;12.27;;;4.20;99.90;;;;;;5052751;28;20212;-58
2021/11/26 09:32:37;;;;;;;28.67;14.23;;;4.20;99.90;;;;;;5052613;28;20220;-63
2021/11/26 09:35:04;;;;;;;29.93;14.13;;;4.20;99.90;;;;;;5052387;28;20234;-61
2021/11/26 09:37:31;;;;;;;34.13;13.97;;;4.20;99.90;;;;;;5043181;28;20668;-60
2021/11/26 09:39:58;;;;;;;28.20;13.23;;;4.20;99.90;;;;;;5032983;28;20208;-61
2021/11/26 09:42:25;;;;;;;30.27;14.63;;;4.20;99.90;;;;;;5032473;28;20239;-59
2021/11/26 09:44:55;;;;;;;22.70;12.07;;;4.30;99.90;;;;;;5031379;28;20233;-59
2021/11/26 09:47:22;;;;;;;28.00;11.57;;;4.40;99.90;;;;;;5032489;28;20237;-60
2021/11/26 09:49:49;;;;;;;25.77;11.73;;;4.40;99.90;;;;;;5032277;28;20584;-58
2021/11/26 09:52:16;;;;;;;26.67;11.70;;;4.30;99.90;;;;;;5031744;28;20208;-58
2021/11/26 09:54:44;;;;;;;24.80;11.03;;;4.30;99.90;;;;;;5032073;28;20284;-59
2021/11/26 09:57:11;;;;;;;22.97;11.33;;;4.30;99.90;;;;;;5032159;28;20586;-60
2021/11/26 09:59:39;;;;;;;22.37;10.77;;;4.30;99.90;;;;;;5032192;28;20242;-62
2021/11/26 10:02:12;;;;;;;23.03;11.40;;;4.30;99.90;;;;;;5032075;28;20211;-59
2021/11/26 10:04:39;;;;;;;29.07;11.13;;;4.40;99.90;;;;;;5031816;28;20293;-62
2021/11/26 10:07:07;;;;;;;20.97;11.03;;;4.40;86.70;;;;;;5031903;28;20250;-62
2021/11/26 10:09:35;;;;;;;20.23;9.13;;;4.40;76.40;;;;;;5032788;28;20211;-62
2021/11/26 10:12:06;;;;;;;20.83;9.33;;;4.30;58.90;;;;;;5031945;28;20280;-63
2021/11/26 10:14:36;;;;;;;20.63;10.40;;;4.30;42.80;;;;;;5031932;28;20210;-61
2021/11/26 10:17:07;;;;;;;21.27;9.60;;;4.30;36.20;;;;;;5032018;28;20279;-60
2021/11/26 10:19:38;;;;;;;21.23;9.60;;;4.40;31.90;;;;;;5031911;28;20207;-60
2021/11/26 10:22:14;;;;;;;17.20;8.50;;;4.50;20.50;;;;;;5031607;28;20676;-61
2021/11/26 10:24:42;;;;;;;16.83;7.77;;;4.40;1.20;;;;;;5031445;28;20228;-62
2021/11/26 10:27:09;;;;;;;13.97;7.17;;;4.30;1.00;;;;;;5032047;28;20236;-58
2021/11/26 10:29:38;;;;;;;18.63;8.27;;;4.20;1.00;;;;;;5031878;28;20266;-62
2021/11/26 10:32:16;;;;;;;15.20;8.50;;;4.30;1.00;;;;;;5031311;28;20303;-58
2021/11/26 10:34:44;;;;;;;21.17;8.37;;;4.30;1.00;;;;;;5030962;28;20254;-59
2021/11/26 10:37:20;;;;;;;21.37;8.13;;;4.30;1.00;;;;;;5031539;28;20216;-65
2021/11/26 10:39:47;;;;;;;11.33;6.83;;;4.40;1.00;;;;;;5031672;28;20559;-63
2021/11/26 10:42:26;;;;;;;20.17;8.70;;;4.30;1.00;;;;;;5031311;28;20218;-63
2021/11/26 10:44:56;;;;;;;22.73;8.97;;;4.30;1.00;;;;;;5031520;28;20241;-63
2021/11/26 10:47:35;;;;;;;15.10;7.40;;;4.30;1.00;;;;;;5031279;28;20227;-65
2021/11/26 10:50:36;;;;;;;20.57;7.33;;;4.30;1.00;;;;;;5031771;28;20239;-65
2021/11/26 10:58:38;;;;;;;18.47;7.63;;;4.10;1.00;;;;;;5031392;28;20198;-59
2021/11/26 11:01:07;;;;;;;19.97;7.57;;;4.00;1.00;;;;;;5031085;28;20743;-61
2021/11/26 11:03:35;;;;;;;21.80;8.63;;;4.00;1.00;;;;;;5031177;28;20207;-60
2021/11/26 11:06:03;;;;;;;13.00;6.57;;;4.10;1.00;;;;;;5030700;28;20234;-62
2021/11/26 11:08:29;;;;;;;15.47;8.07;;;4.00;1.00;;;;;;5031000;28;20261;-65
2021/11/26 11:10:56;;;;;;;18.27;7.63;;;3.90;1.00;;;;;;5031362;28;20630;-66
2021/11/26 11:13:28;;;;;;;15.37;7.93;;;3.90;1.00;;;;;;5047528;28;20257;-65
2021/11/26 11:16:05;;;;;;;15.73;7.47;;;4.00;1.00;;;;;;5051022;28;20222;-64
2021/11/26 11:18:33;;;;;;;17.20;6.87;;;3.90;1.00;;;;;;5050894;28;20340;-63
2021/11/26 11:21:00;;;;;;;21.83;7.17;;;4.00;1.00;;;;;;5051387;28;20213;-63
2021/11/26 11:23:28;;;;;;;16.03;7.37;;;4.00;1.00;;;;;;5050903;28;20209;-63
2021/11/26 11:25:57;;;;;;;19.20;7.13;;;3.90;1.00;;;;;;5050921;28;20279;-62
2021/11/26 11:28:24;;;;;;;15.83;6.33;;;4.00;1.00;;;;;;5051141;28;20485;-64
2021/11/26 11:30:51;;;;;;;14.47;6.20;;;4.00;1.00;;;;;;5051029;28;20695;-62
2021/11/26 11:33:19;;;;;;;17.80;7.30;;;4.00;1.00;;;;;;5050280;28;20867;-62
2021/11/26 11:35:47;;;;;;;16.30;6.37;;;4.10;1.00;;;;;;5050708;28;20258;-62
2021/11/26 11:38:15;;;;;;;13.73;6.00;;;4.10;1.00;;;;;;5051492;28;20209;-61
2021/11/26 11:40:46;;;;;;;18.57;6.17;;;4.10;1.00;;;;;;5050993;28;20573;-62
2021/11/26 11:43:14;;;;;;;18.23;6.27;;;4.20;1.00;;;;;;5050594;28;20644;-61
2021/11/26 11:45:53;;;;;;;12.73;5.37;;;4.10;1.00;;;;;;5050332;28;20237;-66
2021/11/26 11:48:25;;;;;;;11.57;5.30;;;4.00;1.00;;;;;;5050843;28;20230;-63
2021/11/26 11:50:51;;;;;;;11.00;5.87;;;4.00;1.00;;;;;;5051080;28;20578;-62
2021/11/26 11:53:30;;;;;;;13.30;6.10;;;4.00;1.00;;;;;;5050319;28;20344;-62
2021/11/26 11:56:08;;;;;;;17.93;6.53;;;4.00;1.00;;;;;;5050311;28;20275;-63
2021/11/26 11:58:46;;;;;;;15.47;7.13;;;4.10;1.00;;;;;;5051057;28;20207;-62
2021/11/26 12:01:26;;;;;;;14.50;6.40;;;4.10;1.00;;;;;;5050643;28;20249;-62
2021/11/26 12:03:55;;;;;;;18.80;6.67;;;4.20;1.00;;;;;;5050615;28;20234;-61
2021/11/26 12:06:23;;;;;;;16.53;7.13;;;4.20;1.00;;;;;;5050144;28;20238;-61
2021/11/26 12:08:54;;;;;;;15.00;7.27;;;4.30;1.00;;;;;;5054057;28;20231;-62
2021/11/26 12:11:31;;;;;;;13.83;6.83;;;4.20;1.00;;;;;;5053767;28;20936;-61
2021/11/26 12:14:07;;;;;;;16.53;6.23;;;4.20;1.00;;;;;;5054181;28;20211;-61
2021/11/26 12:16:45;;;;;;;15.03;6.07;;;4.20;1.00;;;;;;5053363;28;20734;-63
2021/11/26 12:19:19;;;;;;;17.63;5.80;;;4.20;1.00;;;;;;5053912;28;20248;-62
2021/11/26 12:21:47;;;;;;;11.40;5.40;;;4.20;1.00;;;;;;5053939;28;20640;-61
2021/11/26 12:24:15;;;;;;;9.67;4.30;;;4.10;99.90;;;;;;5053840;28;20712;-60
2021/11/26 12:26:49;;;;;;;9.83;4.27;;;4.10;99.90;;;;;;5053612;28;20210;-59
2021/11/26 12:29:18;;;;;;;7.77;4.37;;;4.10;99.90;;;;;;5053534;28;20248;-61
2021/11/26 12:31:44;;;;;;;10.43;5.20;;;4.20;99.90;;;;;;5053265;28;20959;-62
2021/11/26 12:34:13;;;;;;;12.00;4.60;;;4.20;99.90;;;;;;5053644;28;20249;-62
2021/11/26 12:36:47;;;;;;;14.53;4.50;;;4.30;99.90;;;;;;5053362;28;20613;-60
2021/11/26 12:39:18;;;;;;;8.47;4.63;;;4.30;99.90;;;;;;5053290;28;20208;-61
2021/11/26 12:41:47;;;;;;;14.63;4.70;;;4.30;99.90;;;;;;5053430;28;20219;-62
2021/11/26 12:44:19;;;;;;;13.53;4.43;;;4.30;99.90;;;;;;5053766;28;20226;-62
2021/11/26 12:46:54;;;;;;;7.70;3.93;;;4.40;99.90;;;;;;5053361;28;20212;-64
2021/11/26 12:52:01;;;;;;;11.13;4.90;;;4.50;99.90;;;;;;5053363;28;20189;-63
2021/11/26 12:54:30;;;;;;;9.23;4.63;;;4.60;99.90;;;;;;5053037;28;20208;-61
2021/11/26 12:57:00;;;;;;;11.37;4.17;;;4.60;99.90;;;;;;5053345;28;20209;-61